Utica, Minnesota
Current Conditions -  °F | °C
As of 5:13 AM on Saturday 25 Oct 2014 (Local Time) from KONA Reporting Station
Clear Clear  
Wind Chill: 46°   Ceiling: Unl
Heat Index: 48°   Visibility: 10mi
Dew Point: 46°   Wind: 6mph
Humidity: 93%   Direction: 330°NNW
Pressure: 29.95"   Gusts: NA
Location:  43.98°N, 91.95°W
Report Text: KONA 251013Z AUTO 33005KT 10SM CLR 09/08 A2995 RMK AO2
Loading
Personal Weather Stations






























Interactive Weather Map
Tropical Storm Tracking
New forecast layout! Learn more

10-Day Weather Forecast

Advertisements
Track Severe Weather on mobile